• Join FlightAware (Why Join?)
  • Login
  • US Flag 
12:43AM EDT


 

Airport Tracker/Info


-or-


 

Live Flight TrackerFlight Track Log ✈ VH-VHO ✈ 22-Sep-2013 ✈ YORG / OAG - YSCN / CDU

Flight Track Log - Related Links

Times and Time Zones

All times are in EDT time to prevent confusion due to time zone crossing. See the VH-VHO flight status page for this flight to view local times or setup timezone preferences in your user account.

Time Position Orientation Groundspeed Altitude Reporting Facility
EDT Latitude Longitude Course Direction KTS MPH feet Rate Location/Type
10:07PM -33.4215 149.1889 137° Southeast 132 152 5,000  Level Aus ATC (RADAR)
10:07PM -33.4327 149.2015 137° Southeast 116 133 5,800 900 Climbing Aus ATC (RADAR)
10:09PM -33.4731 149.2429 139° Southeast 130 150 6,900 420 Climbing Aus ATC (RADAR)
10:09PM -33.4988 149.2694 139° Southeast 161 185 6,900 60 Level Aus ATC (RADAR)
10:10PM -33.5094 149.2829 133° Southeast 164 189 7,000  Climbing Aus ATC (RADAR)
10:10PM -33.5292 149.3072 134° Southeast 172 198 6,900 60 Descending Aus ATC (RADAR)
10:11PM -33.5547 149.3396 133° Southeast 176 203 7,100  Climbing Aus ATC (RADAR)
10:12PM -33.5744 149.3667 131° Southeast 182 209 6,900 -180 Descending Aus ATC (RADAR)
10:12PM -33.5948 149.3929 133° Southeast 183 211 6,900 60 Level Aus ATC (RADAR)
10:14PM -33.6653 149.4667 139° Southeast 186 214 7,100 60 Climbing Aus ATC (RADAR)
10:15PM -33.6925 149.5000 135° Southeast 186 214 7,100  Level Aus ATC (RADAR)
10:15PM -33.7076 149.5186 134° Southeast 185 213 7,100 -120 Level Aus ATC (RADAR)
10:16PM -33.7287 149.5442 135° Southeast 182 209 7,000 60 Descending Aus ATC (RADAR)
10:17PM -33.7583 149.5807 134° Southeast 181 208 7,200 -120 Climbing Aus ATC (RADAR)
10:17PM -33.7788 149.6059 134° Southeast 179 206 6,900 -180 Descending Aus ATC (RADAR)
10:19PM -33.8495 149.6936 134° Southeast 181 208 6,800  Descending Aus ATC (RADAR)
10:20PM -33.8758 149.7263 134° Southeast 180 207 6,900 360 Climbing Aus ATC (RADAR)
10:20PM -33.8848 149.7374 134° Southeast 182 209 7,200 300 Climbing Aus ATC (RADAR)
10:21PM -33.9086 149.7671 134° Southeast 183 211 7,200 -180 Level Aus ATC (RADAR)
10:22PM -33.9420 149.8083 134° Southeast 186 214 7,000 -120 Descending Aus ATC (RADAR)
10:22PM -33.9601 149.8308 134° Southeast 185 213 7,100  Climbing Aus ATC (RADAR)
10:23PM -33.9899 149.8679 134° Southeast 184 212 7,000  Descending Aus ATC (RADAR)
10:25PM -34.0304 149.9407 124° Southeast 198 228 7,100  Climbing Aus ATC (RADAR)
10:25PM -34.0311 149.9560 93° East 190 219 7,000  Descending Aus ATC (RADAR)
10:25PM -34.0337 149.9924 95° East 183 211 7,100 -120 Climbing Aus ATC (RADAR)
10:26PM -34.0360 150.0417 93° East 190 219 6,900  Descending Aus ATC (RADAR)
10:27PM -34.0369 150.0807 92° East 196 226 7,100 120 Climbing Aus ATC (RADAR)
10:27PM -34.0365 150.1196 89° East 194 223 7,100 -360 Level Aus ATC (RADAR)
10:28PM -34.0502 150.1758 106° East 186 214 6,600 -540 Descending Aus ATC (RADAR)
10:30PM -34.0593 150.2648 97° East 185 213 5,900 -540 Descending Aus ATC (RADAR)
10:30PM -34.0651 150.3061 100° East 182 209 5,500 -540 Descending Aus ATC (RADAR)
10:31PM -34.0664 150.3264 94° East 178 205 5,400  Descending Aus ATC (RADAR)
10:31PM -34.0705 150.3598 98° East 168 193 5,500 120 Climbing Aus ATC (RADAR)
10:32PM -34.0785 150.4127 100° East 152 175 5,600  Climbing Aus ATC (RADAR)
10:33PM -34.0905 150.4360 122° Southeast 141 162 5,500 -720 Descending Aus ATC (RADAR)
10:34PM -34.1095 150.4739 121° Southeast 139 160 4,600 -960 Descending Aus ATC (RADAR)
10:35PM -34.1063 150.5463 87° East 135 155 3,100 -840 Descending Aus ATC (RADAR)
10:36PM -34.1003 150.5605 63° Northeast 136 157 3,000 -840 Descending Aus ATC (RADAR)
10:36PM -34.0926 150.5822 67° East 136 157 2,400 -900 Descending Aus ATC (RADAR)
10:37PM -34.0792 150.6112 61° Northeast 128 147 1,900 -660 Descending Aus ATC (RADAR)
10:38PM -34.0619 150.6342 48° Northeast 135 155 1,500 -480 Descending Aus ATC (RADAR)
10:38PM -34.0446 150.6606 52° Northeast 136 157 1,300 -360 Descending Aus ATC (RADAR)
10:39PM -34.0304 150.6673 21° North 130 150 1,100 -120 Descending Aus ATC (RADAR)
10:40PM -34.0142 150.6985 58° Northeast 129 148 1,200 -180 Climbing Aus ATC (RADAR)
10:40PM -34.0201 150.7204 108° East 117 135 900 -720 Descending Aus ATC (RADAR)
10:41PM -34.0321 150.7023 231° Southwest 103 119 300 -480 Descending Aus ATC (RADAR)
10:41PM -34.0367 150.6915 243° Southwest 91 105 400 240 Climbing Aus ATC (RADAR)
10:44PM -34.0367 150.6915 224° Southwest -180 Descending Aus ATC (Calculated)
10:47PM -34.0403 150.6872 224° Southwest  Level Estimated
10:48PM -34.0403 150.6872 40° Northeast  Level Estimated
10:49PM -34.0403 150.6872 40° Northeast  Level Estimated
10:50PM -34.0403 150.6872 40° Northeast  Level Estimated
10:51PM -34.0403 150.6872 40° Northeast  Level Estimated
10:52PM -34.0403 150.6872 40° Northeast  Level Estimated
10:53PM -34.0403 150.6872 40° Northeast  Level Estimated
10:54PM -34.0403 150.6872 40° Northeast  Level Estimated
10:55PM -34.0403 150.6872 40° Northeast  Level Estimated
10:56PM -34.0403 150.6872 40° Northeast  Level Estimated
10:57PM -34.0403 150.6872 40° Northeast  Level Estimated
10:58PM -34.0403 150.6872 40° Northeast  Level Estimated
10:59PM -34.0403 150.6872 40° Northeast  Level Estimated
11:00PM -34.0403 150.6872 40° Northeast  Level Estimated
11:01PM -34.0403 150.6872 40° Northeast  Level Estimated
11:02PM -34.0403 150.6872 40° Northeast  Level Estimated
11:03PM -34.0403 150.6872 40° Northeast  Level Estimated